Time;durP1;ratioP1;P1;durP2;ratioP2;P2;SDS_P1;SDS_P2;PMS_P1;PMS_P2;Temp;Humidity;BMP_temperature;BMP_pressure;BME280_temperature;BME280_humidity;BME280_pressure;Samples;Min_cycle;Max_cycle;Signal;HPM_P1;HPM_P2
2023/03/03 00:00:07;;;;;;;15.23;14.07;;;;;;;5.26;62.21;102321.31;5006989;28;20065;-85
2023/03/03 00:02:32;;;;;;;19.25;17.13;;;;;;;5.26;61.89;102313.25;5011652;28;20033;-89
2023/03/03 00:04:58;;;;;;;20.25;16.20;;;;;;;5.26;61.66;102319.44;4979690;28;20030;-88
2023/03/03 00:07:23;;;;;;;21.08;16.52;;;;;;;5.24;62.10;102324.16;5015515;28;20185;-87
2023/03/03 00:09:50;;;;;;;21.73;16.90;;;;;;;5.24;62.00;102320.63;5015034;28;20037;-87
2023/03/03 00:12:28;;;;;;;21.70;18.65;;;;;;;5.23;62.21;102325.16;5015221;28;20482;-86
2023/03/03 00:14:53;;;;;;;14.83;13.73;;;;;;;5.21;62.16;102330.66;5015550;28;20073;-87
2023/03/03 00:17:24;;;;;;;16.20;14.90;;;;;;;5.20;62.03;102326.31;4998328;28;20446;-88
2023/03/03 00:19:50;;;;;;;16.27;15.00;;;;;;;5.19;62.31;102329.16;5016956;28;20057;-86
2023/03/03 00:22:34;;;;;;;20.35;18.45;;;;;;;5.18;62.22;102324.81;5014701;28;20034;-87
2023/03/03 00:25:18;;;;;;;15.15;14.13;;;;;;;5.17;62.26;102329.34;5015263;28;20032;-87
2023/03/03 00:27:44;;;;;;;15.70;14.23;;;;;;;5.16;62.32;102337.53;5015993;28;20064;-87
2023/03/03 00:30:26;;;;;;;17.17;15.38;;;;;;;5.15;62.00;102338.56;5016912;28;20038;-86
2023/03/03 00:32:55;;;;;;;20.67;18.25;;;;;;;5.14;62.30;102336.88;5034117;28;20048;-85
2023/03/03 00:35:26;;;;;;;20.70;18.73;;;;;;;5.14;62.29;102339.53;5014268;28;20081;-85
2023/03/03 00:38:16;;;;;;;16.13;14.93;;;;;;;5.12;62.20;102337.06;5000955;28;20512;-86
2023/03/03 00:40:41;;;;;;;17.38;15.75;;;;;;;5.11;62.46;102346.06;5050523;28;20553;-83
2023/03/03 00:43:18;;;;;;;16.10;15.02;;;;;;;5.10;62.23;102343.59;5063572;28;20056;-86
2023/03/03 00:45:44;;;;;;;14.52;13.32;;;;;;;5.09;62.17;102337.41;5050920;28;20071;-86
2023/03/03 00:48:25;;;;;;;16.48;15.23;;;;;;;5.09;62.03;102340.06;5025126;28;20037;-84
2023/03/03 00:50:56;;;;;;;19.13;17.38;;;;;;;5.07;62.20;102327.84;5036579;28;20029;-85
2023/03/03 00:53:23;;;;;;;17.08;15.57;;;;;;;5.05;62.24;102330.69;5046796;28;20040;-84
2023/03/03 00:55:50;;;;;;;17.70;16.02;;;;;;;5.05;62.39;102341.41;5027626;28;20069;-85
2023/03/03 00:58:17;;;;;;;12.88;11.75;;;;;;;5.05;62.24;102337.88;5040045;28;20075;-85
2023/03/03 01:00:43;;;;;;;17.30;15.90;;;;;;;5.05;61.96;102335.22;5050156;28;20040;-87
2023/03/03 01:03:13;;;;;;;17.02;15.27;;;;;;;5.04;62.21;102331.69;5041461;28;20601;-84
2023/03/03 01:05:39;;;;;;;19.02;17.08;;;;;;;5.03;62.26;102331.84;5060031;28;20045;-85
2023/03/03 01:08:05;;;;;;;26.60;18.80;;;;;;;5.02;62.42;102341.75;5042484;28;20035;-85
2023/03/03 01:10:35;;;;;;;16.63;14.98;;;;;;;5.02;62.50;102343.59;5003967;28;20497;-87
2023/03/03 01:13:01;;;;;;;18.65;15.30;;;;;;;5.01;62.10;102344.56;5011581;28;20033;-85
2023/03/03 01:15:26;;;;;;;15.93;14.45;;;;;;;5.01;62.13;102348.06;5013341;28;20029;-85
2023/03/03 01:17:51;;;;;;;17.20;15.68;;;;;;;4.99;62.33;102339.41;5013183;28;20038;-85
2023/03/03 01:20:17;;;;;;;16.08;14.57;;;;;;;4.98;62.05;102340.38;5015704;28;20038;-85
2023/03/03 01:22:43;;;;;;;16.85;15.10;;;;;;;4.97;62.62;102341.41;4997534;28;20424;-85
2023/03/03 01:25:09;;;;;;;27.25;19.80;;;;;;;4.96;62.55;102350.41;5013350;28;20132;-86
2023/03/03 01:27:35;;;;;;;16.17;14.52;;;;;;;4.95;62.54;102348.75;5013937;28;20037;-86
2023/03/03 01:30:02;;;;;;;21.30;19.08;;;;;;;4.94;62.07;102347.09;5001415;28;20479;-85
2023/03/03 01:32:28;;;;;;;17.13;15.43;;;;;;;4.93;62.23;102335.53;5010935;28;20066;-85
2023/03/03 01:34:54;;;;;;;27.92;18.02;;;;;;;4.93;62.52;102342.72;5017696;28;20072;-84
2023/03/03 01:37:20;;;;;;;17.20;15.48;;;;;;;4.92;62.61;102343.75;4989380;28;20096;-85
2023/03/03 01:39:50;;;;;;;14.45;13.55;;;;;;;4.90;62.21;102338.53;5014488;28;20041;-84
2023/03/03 01:42:16;;;;;;;25.33;19.08;;;;;;;4.89;62.50;102342.22;5014717;28;20032;-85
2023/03/03 01:44:42;;;;;;;15.85;14.60;;;;;;;4.88;62.39;102347.75;5013584;28;20133;-84
2023/03/03 01:47:20;;;;;;;21.50;17.67;;;;;;;4.88;62.57;102353.94;4998546;28;20038;-84
2023/03/03 01:49:48;;;;;;;18.10;16.42;;;;;;;4.86;62.57;102350.56;5014380;28;20104;-86
2023/03/03 01:52:28;;;;;;;13.93;12.90;;;;;;;4.85;63.01;102348.91;5014606;28;20077;-85
2023/03/03 01:54:59;;;;;;;26.45;20.02;;;;;;;4.85;62.71;102348.06;5019900;28;20109;-85
2023/03/03 01:57:32;;;;;;;15.65;14.15;;;;;;;4.83;62.67;102358.94;5027698;28;20065;-83
2023/03/03 01:59:59;;;;;;;21.23;17.85;;;;;;;4.84;62.96;102357.09;5012870;28;20089;-84
2023/03/03 02:02:26;;;;;;;15.05;13.70;;;;;;;4.82;63.14;102346.56;5006547;28;20308;-82
2023/03/03 02:04:52;;;;;;;20.08;17.95;;;;;;;4.82;62.91;102340.38;4998195;28;20034;-85
2023/03/03 02:07:20;;;;;;;17.73;15.82;;;;;;;4.82;62.78;102341.22;5008123;28;20038;-84
2023/03/03 02:09:58;;;;;;;16.35;15.02;;;;;;;4.81;62.37;102344.88;5003342;28;20133;-84
2023/03/03 02:12:35;;;;;;;16.98;15.30;;;;;;;4.80;62.75;102340.53;5013275;28;20033;-85
2023/03/03 02:15:00;;;;;;;17.33;15.82;;;;;;;4.78;62.62;102335.34;5013824;28;20026;-86
2023/03/03 02:17:26;;;;;;;15.77;14.27;;;;;;;4.77;62.85;102339.03;5013173;28;20093;-86
2023/03/03 02:19:56;;;;;;;21.70;19.30;;;;;;;4.78;62.48;102339.84;5020054;28;20026;-85
2023/03/03 02:22:33;;;;;;;19.33;17.25;;;;;;;4.77;62.89;102347.06;5011910;28;20432;-84
2023/03/03 02:25:04;;;;;;;14.65;13.50;;;;;;;4.76;62.78;102349.88;5019975;28;20025;-86
2023/03/03 02:27:31;;;;;;;13.80;12.73;;;;;;;4.75;62.70;102346.38;5018382;28;20156;-84
2023/03/03 02:29:57;;;;;;;17.83;16.05;;;;;;;4.75;62.80;102351.72;5014054;28;20109;-85
2023/03/03 02:32:22;;;;;;;14.15;12.80;;;;;;;4.74;62.91;102347.41;5010932;28;20606;-85
2023/03/03 02:34:50;;;;;;;18.17;16.42;;;;;;;4.73;63.21;102351.06;4993265;28;20027;-84
2023/03/03 02:37:16;;;;;;;18.77;16.85;;;;;;;4.73;62.85;102347.53;5007947;28;20032;-85
2023/03/03 02:39:42;;;;;;;15.90;14.30;;;;;;;4.73;63.05;102352.91;5002903;28;20451;-85
2023/03/03 02:42:10;;;;;;;20.15;17.60;;;;;;;4.72;62.75;102348.56;5028155;28;20119;-83
2023/03/03 02:44:37;;;;;;;15.07;13.85;;;;;;;4.71;63.12;102346.88;5012807;28;20470;-85
2023/03/03 02:47:02;;;;;;;27.95;16.83;;;;;;;4.71;62.84;102346.88;5011907;28;20057;-85
2023/03/03 02:49:31;;;;;;;21.20;17.83;;;;;;;4.70;63.13;102348.72;5007514;28;20064;-84
2023/03/03 02:51:58;;;;;;;20.73;18.00;;;;;;;4.70;62.72;102348.72;5000632;28;20060;-85
2023/03/03 02:54:26;;;;;;;13.77;13.07;;;;;;;4.70;63.11;102347.88;4994553;28;20038;-85
2023/03/03 02:56:52;;;;;;;20.35;17.52;;;;;;;4.70;62.60;102353.25;5000381;28;20048;-85
2023/03/03 02:59:18;;;;;;;18.92;17.10;;;;;;;4.69;62.69;102352.41;5003398;28;20022;-85
2023/03/03 03:01:45;;;;;;;18.63;16.75;;;;;;;4.68;62.75;102348.03;5011486;28;20072;-85
2023/03/03 03:04:14;;;;;;;16.08;14.73;;;;;;;4.67;62.86;102351.72;5012417;28;20053;-85
2023/03/03 03:06:40;;;;;;;16.83;14.90;;;;;;;4.68;62.87;102349.88;5012698;28;20041;-86
2023/03/03 03:09:07;;;;;;;17.88;16.13;;;;;;;4.68;62.87;102357.91;5003785;28;20080;-85
2023/03/03 03:11:34;;;;;;;17.23;15.55;;;;;;;4.66;62.84;102352.75;5004414;28;20465;-85
2023/03/03 03:14:00;;;;;;;18.00;16.17;;;;;;;4.66;63.03;102350.06;5003132;28;20030;-85
2023/03/03 03:16:26;;;;;;;14.48;13.05;;;;;;;4.66;62.93;102354.56;5007028;28;20498;-86
2023/03/03 03:18:51;;;;;;;16.02;14.45;;;;;;;4.66;62.91;102359.91;5003614;28;20042;-86
2023/03/03 03:21:17;;;;;;;21.25;17.52;;;;;;;4.66;62.97;102357.22;4993638;28;20165;-85
2023/03/03 03:23:42;;;;;;;18.08;16.23;;;;;;;4.65;62.90;102350.22;4992444;28;20026;-84
2023/03/03 03:26:08;;;;;;;20.23;17.30;;;;;;;4.65;63.20;102363.59;5007647;28;20044;-86
2023/03/03 03:28:34;;;;;;;17.27;15.70;;;;;;;4.63;63.13;102357.56;5012736;28;20030;-86
2023/03/03 03:31:01;;;;;;;15.77;14.20;;;;;;;4.63;62.86;102361.06;5012286;28;20030;-84
2023/03/03 03:33:29;;;;;;;17.60;15.90;;;;;;;4.63;62.83;102357.56;5012650;28;20513;-84
2023/03/03 03:35:56;;;;;;;14.45;13.32;;;;;;;4.63;63.14;102362.91;5010127;28;20037;-84
2023/03/03 03:38:23;;;;;;;15.93;14.73;;;;;;;4.63;62.95;102365.59;4999085;28;20057;-84
2023/03/03 03:40:48;;;;;;;24.30;19.45;;;;;;;4.62;62.78;102355.91;5011145;28;20030;-85
2023/03/03 03:43:14;;;;;;;16.67;15.30;;;;;;;4.62;63.06;102362.09;5012801;28;20470;-85
2023/03/03 03:45:42;;;;;;;15.73;14.45;;;;;;;4.61;63.11;102357.75;5025859;28;20009;-84
2023/03/03 03:48:07;;;;;;;14.57;13.57;;;;;;;4.60;63.09;102363.25;5028274;28;20026;-85
2023/03/03 03:50:33;;;;;;;13.85;12.85;;;;;;;4.59;63.24;102361.59;5009356;28;20093;-84
2023/03/03 03:52:58;;;;;;;15.07;13.75;;;;;;;4.59;63.16;102359.75;4995853;28;20053;-85
2023/03/03 03:55:24;;;;;;;17.13;15.45;;;;;;;4.61;63.14;102372.94;4996661;28;20073;-83
2023/03/03 03:57:49;;;;;;;18.25;16.58;;;;;;;4.59;63.29;102366.94;5011657;28;20394;-85
2023/03/03 04:00:15;;;;;;;17.40;15.60;;;;;;;4.59;62.95;102366.94;4996152;28;20490;-84
2023/03/03 04:02:41;;;;;;;15.57;14.50;;;;;;;4.58;63.06;102371.44;5000826;28;20118;-85
2023/03/03 04:05:06;;;;;;;21.77;17.38;;;;;;;4.57;62.95;102363.59;5000847;28;20114;-85
2023/03/03 04:07:32;;;;;;;14.50;13.18;;;;;;;4.56;63.02;102368.06;5011556;28;20027;-86
2023/03/03 04:09:58;;;;;;;18.92;15.23;;;;;;;4.57;63.29;102375.13;5004465;28;20053;-83
2023/03/03 04:12:23;;;;;;;18.13;16.25;;;;;;;4.55;63.30;102375.28;5009248;28;20052;-86
2023/03/03 04:14:49;;;;;;;22.73;16.17;;;;;;;4.57;63.28;102372.44;5010821;28;20488;-86
2023/03/03 04:17:23;;;;;;;16.17;14.90;;;;;;;4.57;62.88;102372.44;4991411;28;20035;-85
2023/03/03 04:19:52;;;;;;;13.25;12.35;;;;;;;4.57;62.99;102366.25;5005160;28;20042;-86
2023/03/03 04:22:17;;;;;;;17.08;15.35;;;;;;;4.56;63.13;102370.75;5010736;28;20038;-86
2023/03/03 04:24:43;;;;;;;15.02;13.70;;;;;;;4.54;63.10;102376.28;4992377;28;20038;-84
2023/03/03 04:27:08;;;;;;;15.00;14.02;;;;;;;4.54;63.13;102383.47;4975756;28;20093;-85
2023/03/03 04:29:34;;;;;;;16.33;14.73;;;;;;;4.54;63.33;102389.66;5004996;28;20033;-85
2023/03/03 04:32:00;;;;;;;19.10;15.27;;;;;;;4.53;63.12;102384.47;4995949;28;20032;-84
2023/03/03 04:34:25;;;;;;;17.23;15.60;;;;;;;4.52;63.15;102389.00;4993337;28;20070;-85
2023/03/03 04:36:51;;;;;;;13.82;12.77;;;;;;;4.52;62.97;102389.00;5010816;28;20026;-85
2023/03/03 04:39:16;;;;;;;13.55;12.60;;;;;;;4.52;62.89;102391.66;4992615;28;20310;-85
2023/03/03 04:41:41;;;;;;;14.82;13.45;;;;;;;4.51;62.94;102384.66;5010586;28;20034;-85
2023/03/03 04:44:07;;;;;;;17.40;15.80;;;;;;;4.51;63.15;102394.47;5007595;28;20061;-86
2023/03/03 04:46:32;;;;;;;17.00;15.35;;;;;;;4.50;62.71;102385.63;5009905;28;20035;-84
2023/03/03 04:48:58;;;;;;;16.00;14.68;;;;;;;4.50;62.87;102398.19;5010793;28;20033;-83
2023/03/03 04:51:25;;;;;;;17.35;15.00;;;;;;;4.49;63.06;102393.84;5010159;28;20038;-84
2023/03/03 04:53:51;;;;;;;18.67;16.88;;;;;;;4.48;63.17;102395.66;5011751;28;20031;-85
2023/03/03 04:56:16;;;;;;;19.52;17.52;;;;;;;4.48;63.18;102394.81;5005585;28;20406;-85
2023/03/03 04:58:41;;;;;;;16.63;15.30;;;;;;;4.48;63.33;102397.50;5015344;28;20041;-86
2023/03/03 05:01:12;;;;;;;14.77;13.38;;;;;;;4.47;63.21;102393.97;4995536;28;20038;-86
2023/03/03 05:03:37;;;;;;;14.80;13.68;;;;;;;4.47;63.03;102406.53;5013967;28;20541;-84
2023/03/03 05:06:03;;;;;;;17.98;14.30;;;;;;;4.48;63.11;102400.16;5014143;28;20122;-85
2023/03/03 05:08:28;;;;;;;15.85;14.35;;;;;;;4.46;62.94;102404.84;4964140;28;20050;-85
2023/03/03 05:10:54;;;;;;;13.88;12.88;;;;;;;4.46;63.28;102402.16;5007469;28;20030;-82
2023/03/03 05:13:19;;;;;;;22.45;17.88;;;;;;;4.45;62.71;102392.47;5011443;28;20033;-83
2023/03/03 05:15:54;;;;;;;13.70;12.40;;;;;;;4.46;63.14;102405.69;5001667;28;20038;-85
2023/03/03 05:18:20;;;;;;;18.10;16.20;;;;;;;4.45;63.17;102392.47;4999498;28;20532;-85
2023/03/03 05:20:45;;;;;;;14.63;13.73;;;;;;;4.44;62.83;102396.16;5020135;28;20065;-84
2023/03/03 05:23:11;;;;;;;15.85;14.05;;;;;;;4.44;62.79;102409.53;5014030;28;20474;-85
2023/03/03 05:25:37;;;;;;;16.90;15.40;;;;;;;4.45;62.74;102411.19;5011177;28;20045;-84
2023/03/03 05:28:03;;;;;;;20.77;17.63;;;;;;;4.44;62.71;102402.34;5012519;28;20090;-82
2023/03/03 05:30:29;;;;;;;19.15;16.85;;;;;;;4.42;62.79;102412.34;5009370;28;20057;-85
2023/03/03 05:32:54;;;;;;;15.32;13.80;;;;;;;4.41;62.63;102408.03;5020378;28;20034;-85
2023/03/03 05:35:20;;;;;;;19.08;16.98;;;;;;;4.40;62.93;102406.31;5000549;28;20036;-86
2023/03/03 05:37:46;;;;;;;15.10;13.88;;;;;;;4.40;62.78;102413.53;5017781;28;20098;-83
2023/03/03 05:40:13;;;;;;;18.10;16.05;;;;;;;4.40;62.84;102418.88;4999104;28;20034;-83
2023/03/03 05:42:39;;;;;;;14.30;13.15;;;;;;;4.39;62.95;102412.69;5014659;28;20100;-84
2023/03/03 05:45:05;;;;;;;17.55;16.13;;;;;;;4.39;63.22;102412.69;5013422;28;20437;-82
2023/03/03 05:47:30;;;;;;;16.23;14.73;;;;;;;4.38;62.95;102411.00;4996810;28;20112;-86
2023/03/03 05:49:56;;;;;;;15.15;13.68;;;;;;;4.38;62.89;102424.38;5009728;28;20121;-85
2023/03/03 05:52:23;;;;;;;22.23;19.58;;;;;;;4.40;63.05;102421.53;5011760;28;20034;-86
2023/03/03 05:54:48;;;;;;;16.23;14.90;;;;;;;4.40;63.17;102416.19;5010162;28;20061;-85
2023/03/03 05:57:14;;;;;;;17.70;14.65;;;;;;;4.39;63.05;102415.38;4993324;28;20495;-86
2023/03/03 05:59:39;;;;;;;15.10;13.90;;;;;;;4.39;63.11;102418.03;4995683;28;20038;-86
2023/03/03 06:02:05;;;;;;;17.30;15.68;;;;;;;4.39;63.19;102415.38;5012118;28;20531;-84
2023/03/03 06:04:30;;;;;;;15.55;14.02;;;;;;;4.39;62.85;102426.06;4992434;28;20042;-85
2023/03/03 06:06:56;;;;;;;15.93;14.45;;;;;;;4.40;62.87;102426.91;5013417;28;20462;-85
2023/03/03 06:09:21;;;;;;;17.77;15.85;;;;;;;4.39;63.03;102423.38;5013890;28;20056;-86
2023/03/03 06:11:47;;;;;;;14.35;12.88;;;;;;;4.38;63.03;102424.38;4991534;28;20084;-85
2023/03/03 06:14:12;;;;;;;18.10;16.38;;;;;;;4.38;63.29;102431.56;5000498;28;20080;-87
2023/03/03 06:16:38;;;;;;;15.27;13.70;;;;;;;4.39;62.87;102430.59;5006062;28;20034;-89
2023/03/03 06:19:04;;;;;;;15.75;14.57;;;;;;;4.38;62.86;102421.69;4988129;28;20050;-86
2023/03/03 06:21:29;;;;;;;17.85;15.20;;;;;;;4.38;63.10;102429.72;5010237;28;20108;-87
2023/03/03 06:23:54;;;;;;;14.43;13.32;;;;;;;4.39;63.04;102431.41;5015072;28;20080;-86
2023/03/03 06:26:20;;;;;;;16.95;15.45;;;;;;;4.39;63.13;102435.94;5015851;28;20037;-87
2023/03/03 06:28:45;;;;;;;16.67;14.98;;;;;;;4.39;62.79;102430.59;5016363;28;20030;-87
2023/03/03 06:31:11;;;;;;;14.60;13.65;;;;;;;4.39;63.06;102443.97;4983653;28;20378;-86
2023/03/03 06:33:37;;;;;;;15.23;13.73;;;;;;;4.36;63.33;102442.44;5004223;28;20554;-87
2023/03/03 06:36:02;;;;;;;15.73;13.50;;;;;;;4.38;63.20;102444.94;5003243;28;20368;-87
2023/03/03 06:38:28;;;;;;;15.27;13.95;;;;;;;4.37;62.89;102449.47;4994143;28;20030;-86
2023/03/03 06:40:54;;;;;;;18.83;14.35;;;;;;;4.37;63.05;102454.81;5004967;28;20557;-86
2023/03/03 06:43:20;;;;;;;16.65;14.98;;;;;;;4.38;63.11;102461.00;4996061;28;20093;-86
2023/03/03 06:45:47;;;;;;;16.75;15.02;;;;;;;4.38;63.24;102458.31;5016755;28;20042;-87
2023/03/03 06:48:12;;;;;;;21.83;16.17;;;;;;;4.37;62.92;102459.34;5018932;28;20068;-84
2023/03/03 06:50:38;;;;;;;13.48;12.48;;;;;;;4.37;63.16;102464.69;5003267;28;20093;-84
2023/03/03 06:53:15;;;;;;;15.25;13.68;;;;;;;4.35;63.26;102475.53;4998221;28;20029;-87
2023/03/03 06:55:43;;;;;;;15.18;13.98;;;;;;;4.35;63.19;102472.84;5013655;28;20026;-86
2023/03/03 06:58:15;;;;;;;22.48;17.70;;;;;;;4.35;63.30;102475.53;5014455;28;20173;-87
2023/03/03 07:00:50;;;;;;;15.98;14.50;;;;;;;4.36;63.03;102476.38;5022633;28;20033;-86
2023/03/03 07:03:20;;;;;;;15.95;14.60;;;;;;;4.36;63.34;102476.38;5019461;28;20042;-82
2023/03/03 07:05:46;;;;;;;24.05;18.05;;;;;;;4.36;63.09;102484.38;5017688;28;20045;-84
2023/03/03 07:08:20;;;;;;;13.57;12.65;;;;;;;4.34;62.97;102482.72;5004317;28;20049;-84
2023/03/03 07:10:47;;;;;;;18.65;15.88;;;;;;;4.34;63.36;102487.25;5008035;28;20026;-85
2023/03/03 07:13:21;;;;;;;18.63;16.77;;;;;;;4.34;63.21;102490.75;5009519;28;20030;-88
2023/03/03 07:15:48;;;;;;;18.38;16.48;;;;;;;4.34;63.23;102490.75;5011697;28;20036;-85
2023/03/03 07:18:36;;;;;;;12.93;12.13;;;;;;;4.33;63.41;102486.41;5023892;28;20445;-86
2023/03/03 07:21:24;;;;;;;20.83;17.80;;;;;;;4.33;63.01;102488.22;5010597;28;20109;-86
2023/03/03 07:23:55;;;;;;;16.20;14.13;;;;;;;4.32;63.56;102491.91;5004229;28;20034;-85
2023/03/03 07:26:27;;;;;;;13.65;12.40;;;;;;;4.32;63.08;102490.06;5009032;28;20037;-86
2023/03/03 07:28:57;;;;;;;12.70;11.48;;;;;;;4.32;63.33;102500.75;5007030;28;20053;-85
2023/03/03 07:31:35;;;;;;;20.25;14.90;;;;;;;4.32;63.57;102489.22;4992450;28;20054;-89
2023/03/03 07:34:14;;;;;;;14.32;13.02;;;;;;;4.30;63.63;102496.56;4993266;28;20049;-86
2023/03/03 07:36:40;;;;;;;14.48;13.15;;;;;;;4.30;63.55;102494.72;5004960;28;20030;-86
2023/03/03 07:39:27;;;;;;;13.05;11.95;;;;;;;4.30;63.27;102502.75;5008448;28;20387;-86
2023/03/03 07:42:01;;;;;;;15.88;14.55;;;;;;;4.31;63.26;102508.97;4999622;28;20026;-86
2023/03/03 07:44:35;;;;;;;19.13;14.60;;;;;;;4.31;63.42;102515.16;5011953;28;20018;-87
2023/03/03 07:47:30;;;;;;;18.25;16.48;;;;;;;4.31;63.47;102509.81;5008308;28;20471;-87
2023/03/03 07:49:59;;;;;;;15.45;13.95;;;;;;;4.31;63.34;102508.97;5004979;28;20041;-84
2023/03/03 07:52:47;;;;;;;;;;;;;;;4.31;63.08;102519.66;5008912;28;20076;-82
2023/03/03 07:55:29;;;;;;;20.38;12.63;;;;;;;4.30;63.37;102518.81;5015039;28;20016;-84
2023/03/03 07:57:57;;;;;;;24.33;16.60;;;;;;;4.30;62.99;102528.66;5001377;28;20046;-83
2023/03/03 08:00:23;;;;;;;17.30;15.63;;;;;;;4.29;63.26;102522.50;5000836;28;20034;-86
2023/03/03 08:03:18;;;;;;;13.27;12.45;;;;;;;4.29;63.16;102527.00;5014046;28;20465;-85
2023/03/03 08:05:49;;;;;;;16.13;14.68;;;;;;;4.29;63.31;102529.69;5005311;28;20397;-85
2023/03/03 08:08:29;;;;;;;21.98;17.55;;;;;;;4.29;63.38;102533.19;5013018;28;20073;-85
2023/03/03 08:10:58;;;;;;;13.32;12.32;;;;;;;4.29;63.08;102535.88;5009783;28;20375;-83
2023/03/03 08:13:28;;;;;;;16.80;14.97;;;;;;;4.29;63.63;102535.88;4992450;28;20462;-85
2023/03/03 08:16:14;;;;;;;13.88;12.73;;;;;;;4.28;63.42;102533.34;4997250;28;20467;-84
2023/03/03 08:18:45;;;;;;;22.30;17.23;;;;;;;4.30;63.28;102536.69;5002270;28;20050;-84
2023/03/03 08:21:15;;;;;;;16.95;15.05;;;;;;;4.29;63.29;102541.22;5008817;28;20036;-85
2023/03/03 08:23:41;;;;;;;19.30;16.02;;;;;;;4.29;63.21;102541.22;5013846;28;20064;-83
2023/03/03 08:26:06;;;;;;;15.18;13.85;;;;;;;4.29;63.23;102545.72;5017266;28;20556;-85
2023/03/03 08:28:33;;;;;;;18.83;16.75;;;;;;;4.29;63.25;102551.91;5018800;28;20110;-85
2023/03/03 08:30:59;;;;;;;18.80;15.80;;;;;;;4.29;63.48;102549.25;5016012;28;20105;-84
2023/03/03 08:33:24;;;;;;;17.40;15.65;;;;;;;4.29;63.30;102548.41;5016406;28;20040;-84
2023/03/03 08:35:49;;;;;;;16.00;14.65;;;;;;;4.29;63.68;102557.28;5014224;28;20069;-85
2023/03/03 08:38:17;;;;;;;16.20;14.52;;;;;;;4.29;63.41;102554.59;5012942;28;20037;-87
2023/03/03 08:40:43;;;;;;;14.97;13.40;;;;;;;4.31;63.36;102557.13;5021722;28;20449;-83
2023/03/03 08:43:10;;;;;;;17.17;14.73;;;;;;;4.30;63.50;102550.91;5025152;28;20026;-84
2023/03/03 08:45:36;;;;;;;20.77;16.60;;;;;;;4.31;63.36;102551.78;5017507;28;20091;-85
2023/03/03 08:48:02;;;;;;;12.13;11.23;;;;;;;4.32;63.14;102553.44;5015021;28;20022;-85
2023/03/03 08:50:28;;;;;;;20.02;15.93;;;;;;;4.31;63.46;102554.44;5014369;28;20038;-84
2023/03/03 08:52:55;;;;;;;19.83;17.02;;;;;;;4.31;63.48;102562.47;5010246;28;20061;-85
2023/03/03 08:55:20;;;;;;;16.50;15.02;;;;;;;4.32;63.65;102567.66;5011681;28;20057;-84
2023/03/03 08:57:46;;;;;;;17.77;14.88;;;;;;;4.33;63.43;102563.13;5010949;28;20470;-86
2023/03/03 09:00:15;;;;;;;15.73;14.55;;;;;;;4.32;63.32;102569.50;5011788;28;20049;-86
2023/03/03 09:02:41;;;;;;;20.33;17.65;;;;;;;4.33;63.60;102573.84;5010454;28;20033;-85
2023/03/03 09:05:08;;;;;;;18.65;16.98;;;;;;;4.33;63.56;102576.50;5010568;28;20053;-84
2023/03/03 09:07:33;;;;;;;26.75;19.75;;;;;;;4.34;63.33;102575.53;5007285;28;20073;-86
2023/03/03 09:09:59;;;;;;;16.35;14.65;;;;;;;4.34;63.46;102586.22;4993484;28;20033;-85
2023/03/03 09:12:32;;;;;;;20.92;18.80;;;;;;;4.34;63.70;102578.22;5010852;28;20029;-85
2023/03/03 09:15:06;;;;;;;17.27;15.75;;;;;;;4.33;63.33;102580.03;5009716;28;20080;-86
2023/03/03 09:17:34;;;;;;;18.92;16.45;;;;;;;4.32;63.57;102572.16;5012166;28;20026;-86
2023/03/03 09:20:20;;;;;;;16.92;15.30;;;;;;;4.32;63.90;102573.00;4994361;28;20124;-85
2023/03/03 09:22:46;;;;;;;17.75;15.90;;;;;;;4.33;63.89;102584.53;5010282;28;20563;-84
2023/03/03 09:25:35;;;;;;;15.65;14.20;;;;;;;4.33;63.39;102576.50;5011494;28;20061;-85
2023/03/03 09:28:03;;;;;;;11.65;10.95;;;;;;;4.31;63.78;102587.38;5009686;28;20041;-85
2023/03/03 09:30:36;;;;;;;19.58;14.57;;;;;;;4.31;63.90;102589.22;5007275;28;20342;-83
2023/03/03 09:33:21;;;;;;;17.77;16.00;;;;;;;4.31;63.87;102586.56;5009171;28;20037;-87
2023/03/03 09:35:51;;;;;;;16.60;14.82;;;;;;;4.31;63.57;102581.19;5009409;28;20038;-86
2023/03/03 09:38:30;;;;;;;17.45;14.82;;;;;;;4.31;63.83;102575.84;5009902;28;20038;-85
2023/03/03 09:41:24;;;;;;;16.65;15.20;;;;;;;4.33;63.75;102584.53;5009260;28;20127;-86
2023/03/03 09:43:58;;;;;;;15.48;14.02;;;;;;;4.33;63.86;102584.53;5008509;28;20099;-82
2023/03/03 09:46:43;;;;;;;13.52;12.70;;;;;;;4.33;63.73;102587.22;5011742;28;20057;-87
2023/03/03 09:49:28;;;;;;;12.77;11.88;;;;;;;4.34;63.77;102584.38;5005444;28;20040;-85
2023/03/03 09:52:31;;;;;;;14.23;12.93;;;;;;;4.34;63.57;102595.09;5009065;28;20065;-84
2023/03/03 09:55:15;;;;;;;15.45;14.15;;;;;;;4.34;63.70;102595.09;4993856;28;20042;-85
2023/03/03 09:57:56;;;;;;;18.42;14.77;;;;;;;4.36;63.74;102588.72;5009197;28;20053;-86
2023/03/03 10:00:46;;;;;;;14.65;13.27;;;;;;;4.38;63.67;102594.78;5009669;28;20021;-87
2023/03/03 10:03:38;;;;;;;16.90;15.25;;;;;;;4.37;63.83;102601.97;5009396;28;20111;-88
2023/03/03 10:06:27;;;;;;;15.75;14.30;;;;;;;4.38;63.70;102608.97;5008105;28;20080;-86
2023/03/03 10:09:02;;;;;;;;;;;;;;;4.39;64.05;102599.97;5020294;28;20038;-85
2023/03/03 10:11:40;;;;;;;15.00;13.48;;;;;;;4.38;63.83;102606.31;5022370;28;19918;-85
2023/03/03 10:14:05;;;;;;;13.05;11.93;;;;;;;4.38;63.87;102605.47;5021104;28;20038;-85
2023/03/03 10:17:16;;;;;;;14.02;12.88;;;;;;;4.38;63.91;102595.59;5028257;28;20038;-87
2023/03/03 10:19:52;;;;;;;18.10;16.27;;;;;;;4.40;63.49;102595.47;5014079;28;20319;-87
2023/03/03 10:22:23;;;;;;;15.30;13.90;;;;;;;4.40;63.99;102598.13;5012002;28;20034;-86
2023/03/03 10:25:04;;;;;;;15.57;13.93;;;;;;;4.42;64.20;102590.81;5012412;28;20055;-86
2023/03/03 10:27:29;;;;;;;13.88;12.68;;;;;;;4.45;64.18;102601.19;5005921;28;20031;-87
2023/03/03 10:30:11;;;;;;;14.68;13.38;;;;;;;4.46;64.06;102605.53;4993740;28;20147;-83
2023/03/03 10:33:00;;;;;;;14.75;13.55;;;;;;;4.46;64.15;102601.03;4999432;28;20030;-78
2023/03/03 10:35:46;;;;;;;14.50;13.40;;;;;;;4.49;63.93;102602.56;5008901;28;20103;-89
2023/03/03 10:38:36;;;;;;;13.05;11.98;;;;;;;4.53;64.13;102603.91;5014926;28;20494;-91
2023/03/03 10:41:14;;;;;;;15.13;13.60;;;;;;;4.53;63.89;102609.25;5012826;28;20036;-89
2023/03/03 10:43:55;;;;;;;16.77;15.43;;;;;;;4.53;64.00;102595.88;4998883;28;20038;-88
2023/03/03 10:46:46;;;;;;;16.23;14.93;;;;;;;4.52;64.33;102603.06;5010281;28;20050;-88
2023/03/03 10:49:33;;;;;;;14.23;12.88;;;;;;;4.53;64.32;102595.88;4995537;28;20026;-88
2023/03/03 10:52:06;;;;;;;14.60;13.57;;;;;;;4.54;63.82;102597.56;5007630;28;20037;-88
2023/03/03 10:54:53;;;;;;;25.52;14.25;;;;;;;4.55;64.36;102600.06;5013254;28;20022;-89
2023/03/03 10:57:38;;;;;;;18.92;14.70;;;;;;;4.58;64.43;102598.09;5003332;28;20072;-87
2023/03/03 11:00:22;;;;;;;15.68;14.48;;;;;;;4.59;64.07;102607.81;5012844;28;20040;-90
2023/03/03 11:03:25;;;;;;;14.45;13.32;;;;;;;4.59;64.33;102597.13;5012173;28;20045;-89
2023/03/03 11:05:57;;;;;;;15.68;14.25;;;;;;;4.60;64.19;102596.09;5003370;28;20037;-88
2023/03/03 11:09:02;;;;;;;17.15;14.65;;;;;;;4.61;64.13;102595.97;5011714;28;20120;-84
2023/03/03 11:11:34;;;;;;;14.68;13.57;;;;;;;4.64;64.27;102598.31;4954091;28;20034;-75
2023/03/03 11:14:12;;;;;;;15.30;14.07;;;;;;;4.70;63.95;102594.16;4997806;28;20069;-73
2023/03/03 11:17:11;;;;;;;14.70;13.70;;;;;;;4.76;64.20;102593.50;5004180;28;20049;-86
2023/03/03 11:19:52;;;;;;;14.65;13.50;;;;;;;4.82;64.11;102589.38;5005493;28;20034;-86
2023/03/03 11:22:40;;;;;;;15.27;13.75;;;;;;;4.89;63.99;102591.25;5012916;28;20405;-87
2023/03/03 11:25:30;;;;;;;15.60;14.15;;;;;;;4.94;64.02;102583.59;5021591;28;20034;-85
2023/03/03 11:28:30;;;;;;;16.50;15.05;;;;;;;4.96;63.81;102584.28;5017332;28;20589;-89
2023/03/03 11:31:18;;;;;;;16.23;14.55;;;;;;;5.00;64.03;102576.75;5009794;28;20033;-90
2023/03/03 11:33:55;;;;;;;14.02;12.75;;;;;;;5.02;64.04;102587.31;5004590;28;20034;-87